Pitts, GA (31072)

6:43 AM EDT on September 22, 2014 (GMT -0400)
Crisp County-Cordele | Change Station
CLOSE
Current Station
Airport
Location: Crisp Cnty-Cordele AP, Cordel,
Elevation: 308 ft
Nearby Weather Stations

Elev 308 ft 31.99 °N, 83.77 °W | Updated 8 minutes ago

Clear
Clear
67 °F
Feels Like 67 °F
N
0
Wind Variable Wind from North

Today
High -- | Low -- °F
--% Chance of Precip.
Yesterday
High -- | Low -- °F
Precip. -- in
7:22 AM 7:31 PM
Waning Crescent, 3% visible
Pressure 30.01 in
Visibility 10.0 miles
Clouds Clear
Dew Point 63 °F
Humidity 87%
Rainfall 0.00 in
Snow Depth Not available.
UV 0 out of 12
Pollen 7.90 out of 12
Air Quality Not available.
Flu Activity Not available.
METAR KCKF 221035Z AUTO 00000KT 10SM CLR 19/17 A3001 RMK AO2 LTG DSNT N AND NE T01940171

More Conditions Fewer Conditions

Pressure 30.01 in
Visibility 10.0 miles
Clouds Clear
Dew Point 63 °F
Humidity 87%
Rainfall 0.00 in
Snow Depth Not available.
UV 0 out of 12
Pollen 7.90 out of 12
Air Quality Not available.
Flu Activity Not available.
METAR KCKF 221035Z AUTO 00000KT 10SM CLR 19/17 A3001 RMK AO2 LTG DSNT N AND NE T01940171

More Conditions Fewer Conditions

10-Day Weather Forecast

Almanac

Astronomy

Sep. 22, 2014 Rise Set
Actual Time 7:22 AM EDT 7:31 PM EDT
Civil Twilight 6:58 AM EDT 7:55 PM EDT
Nautical Twilight 6:29 AM EDT 8:23 PM EDT
Astronomical Twilight 6:01 AM EDT 8:52 PM EDT
Moon 5:54 AM EDT 6:36 PM EDT
Length of Visible Light 12h 57m
Length of Day
12h 08m
Tomorrow will be 1m 56s shorter.
Waning Crescent, 3% of the Moon is Illuminated
Today
Waning Crescent
Sep 24
New
Oct 1
First Quarter
Oct 8
Full
Oct 15
Last Quarter

Today's Extremes

State Highs State Lows

Community

WunderPhotos

Upload Photos

1,755,408 photos uploaded!

Nearby

Snow Depth

Station Depth Elevation
No new snow has been reported.

Earthquake Activity

City Distance Mag. Time & Date
New Ellenton, South Carolina 148 miles 2.6 4:38 PM EDT
2014-09-19
Minimum magnitude displayed is 2.5.

Coastal Water Temperatures

Place Temperature
No Stations Reporting

Nearby Weather Stations